sensor_id;sensor_type;location;lat;lon;timestamp;pressure;altitude;pressure_sealevel;temperature;humidity
21276;BME280;36472;52.170;20.884;2022-08-19T00:02:03;100134.94;;;21.87;93.15
21276;BME280;36472;52.170;20.884;2022-08-19T00:04:34;100129.28;;;21.82;93.63
21276;BME280;36472;52.170;20.884;2022-08-19T00:07:05;100128.19;;;21.76;94.25
21276;BME280;36472;52.170;20.884;2022-08-19T00:09:34;100132.38;;;21.71;95.07
21276;BME280;36472;52.170;20.884;2022-08-19T00:12:05;100130.75;;;21.70;95.07
21276;BME280;36472;52.170;20.884;2022-08-19T00:14:33;100131.09;;;21.66;95.88
21276;BME280;36472;52.170;20.884;2022-08-19T00:17:03;100125.91;;;21.65;95.55
21276;BME280;36472;52.170;20.884;2022-08-19T00:19:35;100129.78;;;21.62;96.08
21276;BME280;36472;52.170;20.884;2022-08-19T00:22:05;100130.16;;;21.59;96.23
21276;BME280;36472;52.170;20.884;2022-08-19T00:24:34;100135.31;;;21.61;96.54
21276;BME280;36472;52.170;20.884;2022-08-19T00:27:07;100123.78;;;21.60;96.85
21276;BME280;36472;52.170;20.884;2022-08-19T00:29:51;100123.94;;;21.59;97.12
21276;BME280;36472;52.170;20.884;2022-08-19T00:32:20;100128.47;;;21.58;96.93
21276;BME280;36472;52.170;20.884;2022-08-19T00:34:50;100126.50;;;21.52;96.73
21276;BME280;36472;52.170;20.884;2022-08-19T00:37:22;100121.53;;;21.49;97.00
21276;BME280;36472;52.170;20.884;2022-08-19T00:39:51;100127.19;;;21.46;97.42
21276;BME280;36472;52.170;20.884;2022-08-19T00:42:22;100117.84;;;21.42;97.67
21276;BME280;36472;52.170;20.884;2022-08-19T00:44:53;100128.94;;;21.39;97.94
21276;BME280;36472;52.170;20.884;2022-08-19T00:47:22;100130.75;;;21.38;98.39
21276;BME280;36472;52.170;20.884;2022-08-19T00:49:56;100122.72;;;21.38;98.55
21276;BME280;36472;52.170;20.884;2022-08-19T00:52:32;100119.22;;;21.38;98.52
21276;BME280;36472;52.170;20.884;2022-08-19T00:55:03;100106.94;;;21.28;98.42
21276;BME280;36472;52.170;20.884;2022-08-19T00:57:40;100117.94;;;21.34;98.12
21276;BME280;36472;52.170;20.884;2022-08-19T01:00:17;100120.78;;;21.32;98.50
21276;BME280;36472;52.170;20.884;2022-08-19T01:02:46;100133.97;;;21.34;98.61
21276;BME280;36472;52.170;20.884;2022-08-19T01:05:22;100139.78;;;21.37;98.33
21276;BME280;36472;52.170;20.884;2022-08-19T01:07:52;100142.63;;;21.36;98.18
21276;BME280;36472;52.170;20.884;2022-08-19T01:10:26;100141.44;;;21.38;98.42
21276;BME280;36472;52.170;20.884;2022-08-19T01:13:02;100145.09;;;21.45;97.63
21276;BME280;36472;52.170;20.884;2022-08-19T01:15:42;100145.63;;;21.41;98.03
21276;BME280;36472;52.170;20.884;2022-08-19T01:18:15;100144.19;;;21.30;99.14
21276;BME280;36472;52.170;20.884;2022-08-19T01:20:45;100141.56;;;21.22;99.31
21276;BME280;36472;52.170;20.884;2022-08-19T01:23:16;100141.91;;;21.19;99.56
21276;BME280;36472;52.170;20.884;2022-08-19T01:25:50;100143.06;;;21.16;99.28
21276;BME280;36472;52.170;20.884;2022-08-19T01:28:24;100145.25;;;21.13;99.70
21276;BME280;36472;52.170;20.884;2022-08-19T01:31:05;100142.97;;;21.09;99.89
21276;BME280;36472;52.170;20.884;2022-08-19T01:33:34;100142.84;;;21.03;100.00
21276;BME280;36472;52.170;20.884;2022-08-19T01:36:07;100141.19;;;20.93;100.00
21276;BME280;36472;52.170;20.884;2022-08-19T01:38:41;100141.03;;;20.95;100.00
21276;BME280;36472;52.170;20.884;2022-08-19T01:41:11;100135.19;;;20.91;100.00
21276;BME280;36472;52.170;20.884;2022-08-19T01:43:40;100132.53;;;20.91;100.00
21276;BME280;36472;52.170;20.884;2022-08-19T01:46:29;100131.88;;;20.89;100.00
21276;BME280;36472;52.170;20.884;2022-08-19T01:48:59;100133.50;;;20.90;100.00
21276;BME280;36472;52.170;20.884;2022-08-19T01:51:28;100128.16;;;20.90;100.00
21276;BME280;36472;52.170;20.884;2022-08-19T01:54:08;100121.19;;;20.89;100.00
21276;BME280;36472;52.170;20.884;2022-08-19T01:56:37;100119.16;;;20.91;100.00
21276;BME280;36472;52.170;20.884;2022-08-19T01:59:13;100122.16;;;20.97;100.00
21276;BME280;36472;52.170;20.884;2022-08-19T02:01:43;100125.47;;;20.99;100.00
21276;BME280;36472;52.170;20.884;2022-08-19T02:04:11;100122.47;;;21.02;100.00
21276;BME280;36472;52.170;20.884;2022-08-19T02:06:41;100114.91;;;21.05;99.43
21276;BME280;36472;52.170;20.884;2022-08-19T02:09:11;100118.06;;;21.09;99.27
21276;BME280;36472;52.170;20.884;2022-08-19T02:11:41;100110.91;;;21.09;99.35
21276;BME280;36472;52.170;20.884;2022-08-19T02:14:10;100114.22;;;21.11;99.32
21276;BME280;36472;52.170;20.884;2022-08-19T02:16:39;100109.72;;;21.12;98.94
21276;BME280;36472;52.170;20.884;2022-08-19T02:19:08;100105.56;;;21.09;99.25
21276;BME280;36472;52.170;20.884;2022-08-19T02:21:37;100101.03;;;21.10;99.44
21276;BME280;36472;52.170;20.884;2022-08-19T02:24:06;100113.75;;;21.08;99.17
21276;BME280;36472;52.170;20.884;2022-08-19T02:26:36;100102.88;;;21.09;99.13
21276;BME280;36472;52.170;20.884;2022-08-19T02:29:08;100100.41;;;21.08;99.31
21276;BME280;36472;52.170;20.884;2022-08-19T02:31:36;100105.75;;;21.08;99.18
21276;BME280;36472;52.170;20.884;2022-08-19T02:34:05;100108.41;;;21.08;99.38
21276;BME280;36472;52.170;20.884;2022-08-19T02:36:34;100104.06;;;21.07;98.92
21276;BME280;36472;52.170;20.884;2022-08-19T02:39:09;100103.88;;;21.08;99.37
21276;BME280;36472;52.170;20.884;2022-08-19T02:41:38;100120.09;;;21.07;99.06
21276;BME280;36472;52.170;20.884;2022-08-19T02:44:07;100107.72;;;21.06;99.37
21276;BME280;36472;52.170;20.884;2022-08-19T02:46:56;100114.09;;;21.05;99.78
21276;BME280;36472;52.170;20.884;2022-08-19T02:49:24;100114.09;;;21.05;99.88
21276;BME280;36472;52.170;20.884;2022-08-19T02:51:53;100117.75;;;21.04;100.00
21276;BME280;36472;52.170;20.884;2022-08-19T02:54:22;100115.25;;;21.02;99.83
21276;BME280;36472;52.170;20.884;2022-08-19T02:56:52;100119.44;;;21.05;99.73
21276;BME280;36472;52.170;20.884;2022-08-19T02:59:21;100111.94;;;21.00;100.00
21276;BME280;36472;52.170;20.884;2022-08-19T03:01:50;100112.13;;;20.99;100.00
21276;BME280;36472;52.170;20.884;2022-08-19T03:04:19;100113.31;;;20.96;100.00
21276;BME280;36472;52.170;20.884;2022-08-19T03:06:49;100109.13;;;20.93;100.00
21276;BME280;36472;52.170;20.884;2022-08-19T03:09:19;100113.66;;;20.93;100.00
21276;BME280;36472;52.170;20.884;2022-08-19T03:11:48;100114.66;;;20.92;100.00
21276;BME280;36472;52.170;20.884;2022-08-19T03:14:20;100105.63;;;20.93;100.00
21276;BME280;36472;52.170;20.884;2022-08-19T03:16:51;100099.81;;;20.89;100.00
21276;BME280;36472;52.170;20.884;2022-08-19T03:19:21;100098.16;;;20.88;100.00
21276;BME280;36472;52.170;20.884;2022-08-19T03:21:50;100103.81;;;20.85;100.00
21276;BME280;36472;52.170;20.884;2022-08-19T03:24:20;100097.84;;;20.83;100.00
21276;BME280;36472;52.170;20.884;2022-08-19T03:26:52;100103.19;;;20.83;100.00
21276;BME280;36472;52.170;20.884;2022-08-19T03:29:28;100122.91;;;20.82;100.00
21276;BME280;36472;52.170;20.884;2022-08-19T03:32:00;100114.03;;;20.82;100.00
21276;BME280;36472;52.170;20.884;2022-08-19T03:34:33;100121.53;;;20.86;100.00
21276;BME280;36472;52.170;20.884;2022-08-19T03:37:06;100115.72;;;20.83;100.00
21276;BME280;36472;52.170;20.884;2022-08-19T03:39:37;100122.84;;;20.90;100.00
21276;BME280;36472;52.170;20.884;2022-08-19T03:42:06;100121.03;;;20.91;100.00
21276;BME280;36472;52.170;20.884;2022-08-19T03:44:56;100128.16;;;20.90;100.00
21276;BME280;36472;52.170;20.884;2022-08-19T03:47:26;100131.69;;;20.91;100.00
21276;BME280;36472;52.170;20.884;2022-08-19T03:49:54;100128.84;;;20.92;99.80
21276;BME280;36472;52.170;20.884;2022-08-19T03:52:23;100135.00;;;21.01;99.04
21276;BME280;36472;52.170;20.884;2022-08-19T03:54:52;100138.31;;;21.03;98.97
21276;BME280;36472;52.170;20.884;2022-08-19T03:57:20;100143.13;;;21.08;98.63
21276;BME280;36472;52.170;20.884;2022-08-19T03:59:59;100142.41;;;21.14;99.11
21276;BME280;36472;52.170;20.884;2022-08-19T04:02:40;100136.44;;;21.12;98.39
21276;BME280;36472;52.170;20.884;2022-08-19T04:05:26;100132.38;;;21.16;98.57
21276;BME280;36472;52.170;20.884;2022-08-19T04:07:55;100133.41;;;21.15;98.61
21276;BME280;36472;52.170;20.884;2022-08-19T04:10:26;100135.88;;;21.25;97.88
21276;BME280;36472;52.170;20.884;2022-08-19T04:12:55;100139.50;;;21.32;98.24
21276;BME280;36472;52.170;20.884;2022-08-19T04:15:25;100126.25;;;21.39;97.36
21276;BME280;36472;52.170;20.884;2022-08-19T04:17:56;100125.53;;;21.45;97.03
21276;BME280;36472;52.170;20.884;2022-08-19T04:20:24;100119.50;;;21.51;97.16
21276;BME280;36472;52.170;20.884;2022-08-19T04:22:53;100122.66;;;21.55;96.49
21276;BME280;36472;52.170;20.884;2022-08-19T04:25:22;100124.41;;;21.62;95.12
21276;BME280;36472;52.170;20.884;2022-08-19T04:27:51;100125.22;;;21.71;94.44
21276;BME280;36472;52.170;20.884;2022-08-19T04:30:19;100130.28;;;21.81;94.34
21276;BME280;36472;52.170;20.884;2022-08-19T04:32:51;100131.91;;;21.90;93.76
21276;BME280;36472;52.170;20.884;2022-08-19T04:35:20;100138.84;;;21.99;93.28
21276;BME280;36472;52.170;20.884;2022-08-19T04:37:51;100133.59;;;22.06;92.85
21276;BME280;36472;52.170;20.884;2022-08-19T04:40:20;100133.16;;;22.17;91.73
21276;BME280;36472;52.170;20.884;2022-08-19T04:43:08;100133.91;;;22.26;91.83
21276;BME280;36472;52.170;20.884;2022-08-19T04:45:43;100134.41;;;22.30;91.01
21276;BME280;36472;52.170;20.884;2022-08-19T04:48:13;100135.44;;;22.44;90.09
21276;BME280;36472;52.170;20.884;2022-08-19T04:50:55;100136.34;;;22.51;89.25
21276;BME280;36472;52.170;20.884;2022-08-19T04:53:27;100125.19;;;22.62;88.72
21276;BME280;36472;52.170;20.884;2022-08-19T04:56:11;100127.50;;;22.65;86.82
21276;BME280;36472;52.170;20.884;2022-08-19T04:58:43;100129.03;;;22.74;87.06
21276;BME280;36472;52.170;20.884;2022-08-19T05:01:13;100131.53;;;22.76;86.52
21276;BME280;36472;52.170;20.884;2022-08-19T05:03:44;100129.13;;;22.81;87.00
21276;BME280;36472;52.170;20.884;2022-08-19T05:06:16;100131.63;;;22.83;86.86
21276;BME280;36472;52.170;20.884;2022-08-19T05:08:45;100128.94;;;22.83;86.91
21276;BME280;36472;52.170;20.884;2022-08-19T05:11:19;100128.94;;;22.83;86.20
21276;BME280;36472;52.170;20.884;2022-08-19T05:13:53;100133.47;;;22.82;86.60
21276;BME280;36472;52.170;20.884;2022-08-19T05:16:24;100134.38;;;22.89;86.55
21276;BME280;36472;52.170;20.884;2022-08-19T05:18:56;100132.44;;;22.83;86.14
21276;BME280;36472;52.170;20.884;2022-08-19T05:21:43;100140.56;;;22.90;87.19
21276;BME280;36472;52.170;20.884;2022-08-19T05:24:30;100140.56;;;22.90;86.51
21276;BME280;36472;52.170;20.884;2022-08-19T05:27:01;100144.66;;;22.86;87.22
21276;BME280;36472;52.170;20.884;2022-08-19T05:29:33;100141.88;;;22.79;86.86
21276;BME280;36472;52.170;20.884;2022-08-19T05:32:05;100128.31;;;22.81;86.69
21276;BME280;36472;52.170;20.884;2022-08-19T05:34:38;100143.72;;;22.78;87.98
21276;BME280;36472;52.170;20.884;2022-08-19T05:37:07;100143.34;;;22.82;86.88
21276;BME280;36472;52.170;20.884;2022-08-19T05:39:37;100156.66;;;22.90;86.45
21276;BME280;36472;52.170;20.884;2022-08-19T05:42:10;100155.31;;;23.01;86.48
21276;BME280;36472;52.170;20.884;2022-08-19T05:44:42;100160.97;;;23.06;85.64
21276;BME280;36472;52.170;20.884;2022-08-19T05:47:13;100161.84;;;23.06;85.51
21276;BME280;36472;52.170;20.884;2022-08-19T05:49:44;100158.97;;;23.08;85.32
21276;BME280;36472;52.170;20.884;2022-08-19T05:52:15;100150.63;;;23.03;85.39
21276;BME280;36472;52.170;20.884;2022-08-19T05:54:46;100147.28;;;23.01;85.50
21276;BME280;36472;52.170;20.884;2022-08-19T05:57:19;100142.25;;;22.91;86.25
21276;BME280;36472;52.170;20.884;2022-08-19T05:59:48;100141.56;;;23.04;86.08
21276;BME280;36472;52.170;20.884;2022-08-19T06:02:19;100137.28;;;23.24;85.92
21276;BME280;36472;52.170;20.884;2022-08-19T06:04:49;100130.34;;;23.51;83.61
21276;BME280;36472;52.170;20.884;2022-08-19T06:07:18;100122.56;;;23.78;83.18
21276;BME280;36472;52.170;20.884;2022-08-19T06:09:47;100132.94;;;23.81;81.21
21276;BME280;36472;52.170;20.884;2022-08-19T06:12:29;100137.97;;;23.91;80.66
21276;BME280;36472;52.170;20.884;2022-08-19T06:15:03;100149.91;;;23.88;80.74
21276;BME280;36472;52.170;20.884;2022-08-19T06:17:32;100152.41;;;23.90;80.72
21276;BME280;36472;52.170;20.884;2022-08-19T06:20:05;100155.16;;;23.97;80.93
21276;BME280;36472;52.170;20.884;2022-08-19T06:22:38;100164.72;;;24.06;81.81
21276;BME280;36472;52.170;20.884;2022-08-19T06:25:08;100160.16;;;24.06;80.54
21276;BME280;36472;52.170;20.884;2022-08-19T06:27:37;100169.50;;;24.11;79.74
21276;BME280;36472;52.170;20.884;2022-08-19T06:30:27;100168.97;;;24.22;80.59
21276;BME280;36472;52.170;20.884;2022-08-19T06:32:56;100167.13;;;24.22;79.45
21276;BME280;36472;52.170;20.884;2022-08-19T06:35:26;100178.69;;;24.23;79.78
21276;BME280;36472;52.170;20.884;2022-08-19T06:37:56;100176.09;;;24.36;79.34
21276;BME280;36472;52.170;20.884;2022-08-19T06:40:26;100171.75;;;24.35;79.78
21276;BME280;36472;52.170;20.884;2022-08-19T06:42:54;100164.13;;;24.39;80.38
21276;BME280;36472;52.170;20.884;2022-08-19T06:45:24;100176.28;;;24.35;79.12
21276;BME280;36472;52.170;20.884;2022-08-19T06:48:02;100167.72;;;24.46;79.32
21276;BME280;36472;52.170;20.884;2022-08-19T06:50:32;100172.63;;;24.71;77.69
21276;BME280;36472;52.170;20.884;2022-08-19T06:53:05;100164.25;;;24.94;77.60
21276;BME280;36472;52.170;20.884;2022-08-19T06:55:34;100161.78;;;24.92;76.71
21276;BME280;36472;52.170;20.884;2022-08-19T06:58:03;100164.09;;;25.09;77.28
21276;BME280;36472;52.170;20.884;2022-08-19T07:00:33;100166.53;;;25.58;73.52
21276;BME280;36472;52.170;20.884;2022-08-19T07:03:02;100175.72;;;26.44;70.04
21276;BME280;36472;52.170;20.884;2022-08-19T07:05:41;100172.06;;;26.97;67.90
21276;BME280;36472;52.170;20.884;2022-08-19T07:08:12;100178.50;;;27.41;67.04
21276;BME280;36472;52.170;20.884;2022-08-19T07:10:46;100170.09;;;27.56;65.44
21276;BME280;36472;52.170;20.884;2022-08-19T07:13:15;100177.56;;;27.61;64.56
21276;BME280;36472;52.170;20.884;2022-08-19T07:15:43;100171.34;;;27.15;66.02
21276;BME280;36472;52.170;20.884;2022-08-19T07:18:14;100173.00;;;27.30;66.80
21276;BME280;36472;52.170;20.884;2022-08-19T07:20:44;100170.06;;;27.24;65.81
21276;BME280;36472;52.170;20.884;2022-08-19T07:23:13;100157.97;;;27.72;64.92
21276;BME280;36472;52.170;20.884;2022-08-19T07:25:43;100159.66;;;27.98;65.03
21276;BME280;36472;52.170;20.884;2022-08-19T07:28:19;100157.13;;;28.04;62.40
21276;BME280;36472;52.170;20.884;2022-08-19T07:30:51;100161.94;;;28.20;62.41
21276;BME280;36472;52.170;20.884;2022-08-19T07:33:21;100164.44;;;28.65;62.48
21276;BME280;36472;52.170;20.884;2022-08-19T07:35:55;100164.66;;;29.19;58.02
21276;BME280;36472;52.170;20.884;2022-08-19T07:38:24;100164.06;;;29.90;56.04
21276;BME280;36472;52.170;20.884;2022-08-19T07:40:53;100164.50;;;30.69;55.07
21276;BME280;36472;52.170;20.884;2022-08-19T07:43:22;100161.06;;;31.26;52.38
21276;BME280;36472;52.170;20.884;2022-08-19T07:46:01;100157.84;;;31.58;51.80
21276;BME280;36472;52.170;20.884;2022-08-19T07:48:30;100156.56;;;31.49;51.90
21276;BME280;36472;52.170;20.884;2022-08-19T07:51:05;100166.50;;;31.26;51.93
21276;BME280;36472;52.170;20.884;2022-08-19T07:53:37;100163.06;;;31.02;52.72
21276;BME280;36472;52.170;20.884;2022-08-19T07:56:06;100158.41;;;30.27;55.33
21276;BME280;36472;52.170;20.884;2022-08-19T07:58:40;100154.50;;;30.34;54.90
21276;BME280;36472;52.170;20.884;2022-08-19T08:01:12;100163.31;;;30.77;53.43
21276;BME280;36472;52.170;20.884;2022-08-19T08:03:42;100144.50;;;30.58;53.73
21276;BME280;36472;52.170;20.884;2022-08-19T08:06:30;100152.06;;;31.09;53.12
21276;BME280;36472;52.170;20.884;2022-08-19T08:09:22;100150.03;;;31.16;52.48
21276;BME280;36472;52.170;20.884;2022-08-19T08:11:56;100161.09;;;31.43;52.36
21276;BME280;36472;52.170;20.884;2022-08-19T08:14:37;100157.84;;;31.92;50.10
21276;BME280;36472;52.170;20.884;2022-08-19T08:17:11;100165.03;;;32.71;48.54
21276;BME280;36472;52.170;20.884;2022-08-19T08:19:41;100161.13;;;33.11;47.83
21276;BME280;36472;52.170;20.884;2022-08-19T08:22:16;100161.84;;;33.24;46.88
21276;BME280;36472;52.170;20.884;2022-08-19T08:25:04;100172.59;;;33.13;47.35
21276;BME280;36472;52.170;20.884;2022-08-19T08:27:35;100165.25;;;32.48;49.16
21276;BME280;36472;52.170;20.884;2022-08-19T08:30:08;100161.97;;;32.90;48.97
21276;BME280;36472;52.170;20.884;2022-08-19T08:32:39;100162.78;;;33.12;47.48
21276;BME280;36472;52.170;20.884;2022-08-19T08:35:13;100167.47;;;33.17;48.16
21276;BME280;36472;52.170;20.884;2022-08-19T08:37:47;100149.63;;;33.04;48.62
21276;BME280;36472;52.170;20.884;2022-08-19T08:40:30;100160.28;;;33.60;46.94
21276;BME280;36472;52.170;20.884;2022-08-19T08:43:07;100160.63;;;33.36;47.74
21276;BME280;36472;52.170;20.884;2022-08-19T08:45:46;100162.44;;;34.23;46.45
21276;BME280;36472;52.170;20.884;2022-08-19T08:48:30;100172.41;;;34.07;45.75
21276;BME280;36472;52.170;20.884;2022-08-19T08:51:05;100178.44;;;34.14;46.89
21276;BME280;36472;52.170;20.884;2022-08-19T08:53:39;100181.53;;;33.90;46.21
21276;BME280;36472;52.170;20.884;2022-08-19T08:56:09;100184.38;;;34.06;45.84
21276;BME280;36472;52.170;20.884;2022-08-19T08:58:56;100171.66;;;34.64;45.98
21276;BME280;36472;52.170;20.884;2022-08-19T09:01:27;100170.03;;;34.69;44.61
21276;BME280;36472;52.170;20.884;2022-08-19T09:03:57;100177.84;;;35.08;43.39
21276;BME280;36472;52.170;20.884;2022-08-19T09:06:36;100179.06;;;35.63;43.35
21276;BME280;36472;52.170;20.884;2022-08-19T09:09:17;100170.31;;;35.46;41.67
21276;BME280;36472;52.170;20.884;2022-08-19T09:12:00;100181.78;;;35.63;41.31
21276;BME280;36472;52.170;20.884;2022-08-19T09:14:40;100179.03;;;35.43;40.72
21276;BME280;36472;52.170;20.884;2022-08-19T09:17:21;100178.06;;;34.86;40.57
21276;BME280;36472;52.170;20.884;2022-08-19T09:19:59;100171.38;;;34.61;41.40
21276;BME280;36472;52.170;20.884;2022-08-19T09:22:29;100198.78;;;34.76;41.41
21276;BME280;36472;52.170;20.884;2022-08-19T09:25:00;100193.88;;;34.83;41.62
21276;BME280;36472;52.170;20.884;2022-08-19T09:27:31;100194.41;;;34.33;41.79
21276;BME280;36472;52.170;20.884;2022-08-19T09:30:24;100191.25;;;34.51;42.04
21276;BME280;36472;52.170;20.884;2022-08-19T09:32:54;100190.59;;;34.81;41.61
21276;BME280;36472;52.170;20.884;2022-08-19T09:35:27;100187.69;;;35.03;41.42
21276;BME280;36472;52.170;20.884;2022-08-19T09:37:58;100187.22;;;34.69;41.13
21276;BME280;36472;52.170;20.884;2022-08-19T09:40:30;100184.84;;;34.78;41.20
21276;BME280;36472;52.170;20.884;2022-08-19T09:43:04;100201.63;;;35.12;40.93
21276;BME280;36472;52.170;20.884;2022-08-19T09:45:37;100195.66;;;35.26;40.73
21276;BME280;36472;52.170;20.884;2022-08-19T09:48:06;100198.41;;;35.26;40.17
21276;BME280;36472;52.170;20.884;2022-08-19T09:50:38;100194.91;;;35.46;40.04
21276;BME280;36472;52.170;20.884;2022-08-19T09:53:19;100194.09;;;35.55;39.97
21276;BME280;36472;52.170;20.884;2022-08-19T09:55:55;100186.22;;;35.85;38.69
21276;BME280;36472;52.170;20.884;2022-08-19T09:58:24;100192.97;;;35.36;39.79
21276;BME280;36472;52.170;20.884;2022-08-19T10:00:55;100183.75;;;35.78;39.07
21276;BME280;36472;52.170;20.884;2022-08-19T10:03:25;100174.16;;;35.50;38.35
21276;BME280;36472;52.170;20.884;2022-08-19T10:05:59;100176.31;;;35.58;39.68
21276;BME280;36472;52.170;20.884;2022-08-19T10:08:30;100177.69;;;35.50;39.30
21276;BME280;36472;52.170;20.884;2022-08-19T10:11:03;100182.91;;;36.29;38.20
21276;BME280;36472;52.170;20.884;2022-08-19T10:13:52;100177.97;;;36.21;37.19
21276;BME280;36472;52.170;20.884;2022-08-19T10:16:23;100175.75;;;36.38;37.93
21276;BME280;36472;52.170;20.884;2022-08-19T10:18:57;100174.19;;;36.01;38.01
21276;BME280;36472;52.170;20.884;2022-08-19T10:21:33;100166.09;;;34.97;38.84
21276;BME280;36472;52.170;20.884;2022-08-19T10:24:05;100163.78;;;35.67;38.85
21276;BME280;36472;52.170;20.884;2022-08-19T10:26:40;100161.03;;;35.52;39.15
21276;BME280;36472;52.170;20.884;2022-08-19T10:29:13;100165.59;;;35.20;39.48
21276;BME280;36472;52.170;20.884;2022-08-19T10:32:00;100168.38;;;35.41;38.32
21276;BME280;36472;52.170;20.884;2022-08-19T10:34:30;100164.03;;;35.61;38.55
21276;BME280;36472;52.170;20.884;2022-08-19T10:37:01;100162.56;;;35.12;40.28
21276;BME280;36472;52.170;20.884;2022-08-19T10:39:32;100157.59;;;34.88;38.52
21276;BME280;36472;52.170;20.884;2022-08-19T10:42:11;100153.34;;;35.28;38.59
21276;BME280;36472;52.170;20.884;2022-08-19T10:44:41;100157.25;;;34.74;39.31
21276;BME280;36472;52.170;20.884;2022-08-19T10:47:10;100170.22;;;35.10;39.59
21276;BME280;36472;52.170;20.884;2022-08-19T10:49:53;100172.50;;;35.49;38.61
21276;BME280;36472;52.170;20.884;2022-08-19T10:52:40;100159.53;;;35.03;38.24
21276;BME280;36472;52.170;20.884;2022-08-19T10:55:20;100158.06;;;34.70;39.06
21276;BME280;36472;52.170;20.884;2022-08-19T10:58:13;100154.63;;;35.00;39.72
21276;BME280;36472;52.170;20.884;2022-08-19T11:00:43;100151.69;;;35.22;38.38
21276;BME280;36472;52.170;20.884;2022-08-19T11:03:19;100148.72;;;35.39;37.99
21276;BME280;36472;52.170;20.884;2022-08-19T11:05:58;100160.63;;;34.97;38.81
21276;BME280;36472;52.170;20.884;2022-08-19T11:08:27;100144.38;;;34.59;39.45
21276;BME280;36472;52.170;20.884;2022-08-19T11:11:00;100143.00;;;34.62;38.34
21276;BME280;36472;52.170;20.884;2022-08-19T11:13:35;100143.16;;;34.40;38.42
21276;BME280;36472;52.170;20.884;2022-08-19T11:16:08;100131.69;;;34.33;38.99
21276;BME280;36472;52.170;20.884;2022-08-19T11:18:41;100130.69;;;34.06;40.07
21276;BME280;36472;52.170;20.884;2022-08-19T11:21:15;100126.50;;;33.94;39.39
21276;BME280;36472;52.170;20.884;2022-08-19T11:23:49;100125.31;;;34.17;38.29
21276;BME280;36472;52.170;20.884;2022-08-19T11:26:20;100127.41;;;34.09;39.11
21276;BME280;36472;52.170;20.884;2022-08-19T11:28:51;100117.63;;;34.08;41.00
21276;BME280;36472;52.170;20.884;2022-08-19T11:31:26;100122.13;;;34.25;40.56
21276;BME280;36472;52.170;20.884;2022-08-19T11:33:56;100118.25;;;33.83;40.93
21276;BME280;36472;52.170;20.884;2022-08-19T11:36:28;100113.09;;;33.54;41.31
21276;BME280;36472;52.170;20.884;2022-08-19T11:38:56;100114.78;;;33.28;41.00
21276;BME280;36472;52.170;20.884;2022-08-19T11:41:26;100109.59;;;33.27;41.32
21276;BME280;36472;52.170;20.884;2022-08-19T11:43:56;100109.53;;;33.22;42.64
21276;BME280;36472;52.170;20.884;2022-08-19T11:46:26;100096.88;;;33.10;42.38
21276;BME280;36472;52.170;20.884;2022-08-19T11:48:57;100101.66;;;32.98;42.49
21276;BME280;36472;52.170;20.884;2022-08-19T11:51:27;100098.22;;;32.80;42.59
21276;BME280;36472;52.170;20.884;2022-08-19T11:53:58;100083.00;;;32.85;43.43
21276;BME280;36472;52.170;20.884;2022-08-19T11:56:28;100083.75;;;32.75;43.12
21276;BME280;36472;52.170;20.884;2022-08-19T11:59:01;100083.38;;;32.66;42.40
21276;BME280;36472;52.170;20.884;2022-08-19T12:01:30;100085.56;;;32.69;43.66
21276;BME280;36472;52.170;20.884;2022-08-19T12:04:00;100080.56;;;32.39;43.88
21276;BME280;36472;52.170;20.884;2022-08-19T12:06:32;100077.78;;;32.56;44.60
21276;BME280;36472;52.170;20.884;2022-08-19T12:09:06;100079.09;;;32.53;44.52
21276;BME280;36472;52.170;20.884;2022-08-19T12:11:36;100072.16;;;32.40;44.89
21276;BME280;36472;52.170;20.884;2022-08-19T12:14:10;100081.94;;;32.41;44.72
21276;BME280;36472;52.170;20.884;2022-08-19T12:16:45;100077.59;;;32.40;43.87
21276;BME280;36472;52.170;20.884;2022-08-19T12:19:19;100072.22;;;32.46;44.61
21276;BME280;36472;52.170;20.884;2022-08-19T12:21:50;100068.72;;;32.28;44.07
21276;BME280;36472;52.170;20.884;2022-08-19T12:24:20;100070.38;;;32.29;45.32
21276;BME280;36472;52.170;20.884;2022-08-19T12:26:51;100061.00;;;32.20;46.07
21276;BME280;36472;52.170;20.884;2022-08-19T12:29:22;100057.72;;;32.18;44.58
21276;BME280;36472;52.170;20.884;2022-08-19T12:31:56;100056.41;;;32.20;43.46
21276;BME280;36472;52.170;20.884;2022-08-19T12:34:32;100055.41;;;32.10;44.43
21276;BME280;36472;52.170;20.884;2022-08-19T12:37:04;100058.31;;;32.03;43.81
21276;BME280;36472;52.170;20.884;2022-08-19T12:39:39;100055.94;;;32.06;43.28
21276;BME280;36472;52.170;20.884;2022-08-19T12:42:10;100033.00;;;32.02;43.79
21276;BME280;36472;52.170;20.884;2022-08-19T12:44:43;100044.69;;;32.20;42.54
21276;BME280;36472;52.170;20.884;2022-08-19T12:47:13;100044.84;;;32.08;43.08
21276;BME280;36472;52.170;20.884;2022-08-19T12:49:42;100041.09;;;32.14;43.77
21276;BME280;36472;52.170;20.884;2022-08-19T12:52:23;100040.84;;;32.16;44.73
21276;BME280;36472;52.170;20.884;2022-08-19T12:54:55;100029.72;;;32.39;44.25
21276;BME280;36472;52.170;20.884;2022-08-19T12:57:27;100030.41;;;32.52;44.98
21276;BME280;36472;52.170;20.884;2022-08-19T13:00:07;100043.88;;;32.41;42.54
21276;BME280;36472;52.170;20.884;2022-08-19T13:02:38;100034.97;;;32.24;43.76
21276;BME280;36472;52.170;20.884;2022-08-19T13:05:12;100041.72;;;32.21;43.70
21276;BME280;36472;52.170;20.884;2022-08-19T13:07:43;100038.63;;;32.13;43.82